createdAt,value
2017-08-02T07:36:51.809Z,1018.105
2017-08-02T07:39:35.597Z,1018.100
2017-08-02T07:43:03.513Z,1018.156
2017-08-02T07:48:39.974Z,1018.184
2017-08-02T07:51:24.386Z,1018.164
2017-08-02T08:08:09.213Z,1018.277
2017-08-02T08:11:27.078Z,1018.257
2017-08-02T08:16:40.571Z,1018.432
2017-08-02T08:19:25.191Z,1018.509
2017-08-02T08:22:19.769Z,1018.467
2017-08-02T08:25:14.744Z,1018.489
2017-08-02T08:30:36.822Z,1018.586
2017-08-02T08:33:21.615Z,1018.543
2017-08-02T08:44:22.164Z,1018.611
2017-08-02T08:47:06.292Z,1018.698
2017-08-02T08:50:00.662Z,1018.720
2017-08-02T08:52:55.554Z,1018.789
2017-08-02T08:55:50.625Z,1018.852
2017-08-02T08:59:42.349Z,1018.895
2017-08-02T09:02:28.430Z,1018.789
2017-08-02T09:10:05.883Z,1018.815
2017-08-02T09:12:50.304Z,1018.823
2017-08-02T09:15:44.871Z,1018.809
2017-08-02T09:18:40.009Z,1018.791
2017-08-02T09:21:35.187Z,1018.886
2017-08-02T09:24:30.481Z,1018.909
2017-08-02T09:27:25.824Z,1018.922
2017-08-02T09:30:43.792Z,1019.030
2017-08-02T09:33:32.320Z,1018.923
2017-08-02T09:36:27.611Z,1018.926
2017-08-02T09:39:45.479Z,1019.000
2017-08-02T09:43:30.588Z,1019.041
2017-08-02T09:46:16.740Z,1019.066
2017-08-02T09:54:50.727Z,1018.996
2017-08-02T09:57:35.069Z,1018.787
2017-08-02T10:00:29.601Z,1018.821
2017-08-02T10:06:59.249Z,1018.762
2017-08-02T10:09:43.810Z,1018.849
2017-08-02T10:12:38.431Z,1018.748
2017-08-02T10:15:33.470Z,1018.834
2017-08-02T10:18:28.739Z,1018.747
2017-08-02T10:21:24.048Z,1018.760
2017-08-02T10:24:19.564Z,1018.774
2017-08-02T10:27:14.801Z,1018.765
2017-08-02T10:30:10.185Z,1018.814
2017-08-02T10:33:05.495Z,1018.706
2017-08-02T10:36:00.850Z,1018.748
2017-08-02T10:38:56.127Z,1018.751
2017-08-02T10:42:36.669Z,1018.769
2017-08-02T10:45:45.887Z,1018.850
2017-08-02T10:48:56.864Z,1018.819
2017-08-02T10:51:45.181Z,1018.815
2017-08-02T10:54:40.317Z,1018.810
2017-08-02T10:57:35.493Z,1018.791
2017-08-02T11:01:38.598Z,1018.787
2017-08-02T11:04:58.432Z,1018.701
2017-08-02T11:07:45.671Z,1018.628
2017-08-02T11:10:40.832Z,1018.657
2017-08-02T11:13:35.982Z,1018.762
2017-08-02T11:16:31.346Z,1018.775
2017-08-02T11:19:26.624Z,1018.781
2017-08-02T11:22:21.884Z,1018.795
2017-08-02T11:25:17.284Z,1018.741
2017-08-02T11:28:12.538Z,1018.781
2017-08-02T11:31:07.925Z,1018.797
2017-08-02T11:34:03.297Z,1018.774
2017-08-02T11:36:58.590Z,1018.764
2017-08-02T11:39:53.969Z,1018.720
2017-08-02T11:42:49.320Z,1018.572
2017-08-02T11:45:44.739Z,1018.543
2017-08-02T11:52:35.371Z,1018.649
2017-08-02T11:55:22.615Z,1018.634
2017-08-02T12:03:00.297Z,1018.538
2017-08-02T12:05:44.777Z,1018.488
2017-08-02T12:08:50.671Z,1018.561
2017-08-02T12:13:45.263Z,1018.492
2017-08-02T12:16:30.233Z,1018.537
2017-08-02T12:19:25.029Z,1018.470
2017-08-02T12:22:20.139Z,1018.388
2017-08-02T12:25:15.429Z,1018.429
2017-08-02T12:28:10.697Z,1018.487
2017-08-02T12:31:05.918Z,1018.556
2017-08-02T12:34:46.439Z,1018.557
2017-08-02T12:37:33.113Z,1018.504
2017-08-02T12:40:28.297Z,1018.447
2017-08-02T12:43:23.435Z,1018.464
2017-08-02T12:46:18.805Z,1018.580
2017-08-02T12:49:14.158Z,1018.618
2017-08-02T12:52:09.502Z,1018.637
2017-08-02T12:55:04.803Z,1018.515
2017-08-02T12:58:00.100Z,1018.470
2017-08-02T13:00:55.437Z,1018.433
2017-08-02T13:03:50.722Z,1018.444
2017-08-02T13:06:46.074Z,1018.440
2017-08-02T13:09:41.386Z,1018.394
2017-08-02T13:12:36.869Z,1018.260
2017-08-02T13:15:32.207Z,1018.302
2017-08-02T13:18:27.614Z,1018.283
2017-08-02T13:21:22.988Z,1018.306
2017-08-02T13:24:18.350Z,1018.287
2017-08-02T13:27:58.840Z,1018.280
2017-08-02T13:30:45.532Z,1018.236
2017-08-02T13:33:40.646Z,1018.192
2017-08-02T13:36:35.977Z,1018.166
2017-08-02T13:39:31.434Z,1018.145
2017-08-02T13:42:26.758Z,1018.125
2017-08-02T13:45:22.085Z,1018.149
2017-08-02T13:48:17.473Z,1018.231
2017-08-02T13:51:12.915Z,1018.256
2017-08-02T13:57:50.887Z,1018.064
2017-08-02T14:03:41.308Z,1018.004
2017-08-02T14:06:36.555Z,1018.055
2017-08-02T14:09:32.016Z,1018.101
2017-08-02T14:12:27.260Z,1018.140
2017-08-02T14:15:22.675Z,1018.243
2017-08-02T14:18:18.076Z,1018.223
2017-08-02T14:21:13.469Z,1018.130
2017-08-02T14:24:08.811Z,1018.169
2017-08-02T14:27:04.179Z,1018.038
2017-08-02T14:29:59.478Z,1018.026
2017-08-02T14:34:59.113Z,1017.945
2017-08-02T14:40:38.935Z,1017.729
2017-08-02T14:43:34.157Z,1017.762
2017-08-02T14:46:29.395Z,1017.858
2017-08-02T14:49:24.636Z,1017.784
2017-08-02T14:52:19.943Z,1017.779
2017-08-02T14:55:15.315Z,1017.776
2017-08-02T14:58:10.632Z,1017.675
2017-08-02T15:01:05.923Z,1017.656
2017-08-02T15:04:01.238Z,1017.602
2017-08-02T15:06:56.544Z,1017.528
2017-08-02T15:09:51.975Z,1017.406
2017-08-02T15:12:47.157Z,1017.429
2017-08-02T15:15:42.699Z,1017.455
2017-08-02T15:18:38.128Z,1017.477
2017-08-02T15:21:33.506Z,1017.384
2017-08-02T15:24:28.861Z,1017.325
2017-08-02T15:27:24.235Z,1017.334
2017-08-02T15:30:19.635Z,1017.356
2017-08-02T15:33:15.026Z,1017.348
2017-08-02T15:36:10.490Z,1017.296
2017-08-02T15:39:05.896Z,1017.351
2017-08-02T15:42:01.262Z,1017.277
2017-08-02T15:44:56.525Z,1017.169
2017-08-02T15:47:51.943Z,1017.152
2017-08-02T15:50:47.392Z,1017.270
2017-08-02T15:53:42.636Z,1017.067
2017-08-02T15:56:37.966Z,1017.047
2017-08-02T15:59:33.373Z,1017.030
2017-08-02T16:02:28.729Z,1016.972
2017-08-02T16:05:24.152Z,1016.996
2017-08-02T16:08:19.484Z,1016.991
2017-08-02T16:11:14.816Z,1016.935
2017-08-02T16:14:10.096Z,1016.880
2017-08-02T16:17:05.413Z,1016.910
2017-08-02T16:20:00.742Z,1016.828
2017-08-02T16:22:56.116Z,1016.802
2017-08-02T16:25:51.488Z,1016.831
2017-08-02T16:28:47.125Z,1016.817
2017-08-02T16:31:42.349Z,1016.766
2017-08-02T16:34:37.626Z,1016.716
2017-08-02T16:37:33.013Z,1016.714
2017-08-02T16:40:28.374Z,1016.644
2017-08-02T16:43:23.516Z,1016.680
2017-08-02T16:46:19.086Z,1016.648
2017-08-02T16:49:14.479Z,1016.624
2017-08-02T16:52:09.761Z,1016.641
2017-08-02T16:58:00.330Z,1016.622
2017-08-02T17:00:55.652Z,1016.604
2017-08-02T17:03:50.956Z,1016.626
2017-08-02T17:06:46.302Z,1016.632
2017-08-02T17:09:41.622Z,1016.665
2017-08-02T17:12:36.873Z,1016.654
2017-08-02T17:15:32.109Z,1016.612
2017-08-02T17:18:27.504Z,1016.574
2017-08-02T17:21:22.860Z,1016.533
2017-08-02T17:24:18.266Z,1016.551
2017-08-02T17:27:13.482Z,1016.575
2017-08-02T17:30:08.783Z,1016.597
2017-08-02T17:33:04.190Z,1016.646
2017-08-02T17:35:59.424Z,1016.649
2017-08-02T17:38:54.626Z,1016.629
2017-08-02T17:41:49.895Z,1016.733
2017-08-02T17:44:45.166Z,1016.771
2017-08-02T17:47:40.359Z,1016.767
2017-08-02T17:53:30.813Z,1016.688
2017-08-02T17:56:26.065Z,1016.708
2017-08-02T17:59:21.257Z,1016.733
2017-08-02T18:02:16.602Z,1016.742
2017-08-02T18:05:11.810Z,1016.848
2017-08-02T18:08:07.175Z,1017.223
2017-08-02T18:11:02.361Z,1017.428
2017-08-02T18:13:57.664Z,1017.346
2017-08-02T18:16:53.030Z,1017.075
2017-08-02T18:47:06.743Z,1017.325
2017-08-02T19:06:36.389Z,1017.354
2017-08-02T19:21:46.147Z,1017.281
2017-08-02T20:15:54.862Z,1017.094
2017-08-02T20:28:37.624Z,1017.088
2017-08-02T20:31:32.897Z,1017.087
2017-08-02T20:34:34.055Z,1017.091
2017-08-02T20:41:43.706Z,1017.143
2017-08-02T21:00:28.527Z,1017.043
2017-08-02T21:03:12.439Z,1017.087
2017-08-02T21:06:40.553Z,1017.130
2017-08-02T21:25:39.225Z,1017.030
2017-08-02T21:36:51.686Z,1017.139
2017-08-02T21:45:37.279Z,1017.261
2017-08-02T22:02:40.087Z,1017.413
2017-08-02T22:06:43.066Z,1017.451
2017-08-02T23:08:02.270Z,1017.013
2017-08-02T23:10:46.068Z,1017.045
